Time;durP1;ratioP1;P1;durP2;ratioP2;P2;SDS_P1;SDS_P2;PMS_P1;PMS_P2;Temp;Humidity;BMP_temperature;BMP_pressure;BME280_temperature;BME280_humidity;BME280_pressure;Samples;Min_cycle;Max_cycle;Signal;HPM_P1;HPM_P2
2022/03/22 00:01:30;;;;;;;45.80;24.50;;;12.50;65.70;;;;;;5037262;28;20181;-89
2022/03/22 00:03:56;;;;;;;39.70;25.73;;;12.60;65.70;;;;;;5037287;28;20213;-90
2022/03/22 00:06:22;;;;;;;43.53;24.95;;;12.60;65.70;;;;;;5037171;28;20177;-90
2022/03/22 00:08:48;;;;;;;39.30;23.13;;;12.50;65.80;;;;;;5037524;28;20211;-89
2022/03/22 00:11:15;;;;;;;37.28;23.58;;;12.40;65.80;;;;;;5036364;28;20173;-90
2022/03/22 00:13:44;;;;;;;38.58;21.27;;;12.40;66.10;;;;;;5036893;28;20341;-90
2022/03/22 00:16:12;;;;;;;45.03;22.83;;;12.50;66.20;;;;;;5040240;28;20211;-89
2022/03/22 00:18:38;;;;;;;47.38;23.63;;;12.40;66.10;;;;;;5054819;28;20239;-90
2022/03/22 00:21:06;;;;;;;39.03;23.95;;;12.40;66.20;;;;;;5037464;28;20181;-90
2022/03/22 00:23:32;;;;;;;39.42;23.75;;;12.30;66.30;;;;;;5036466;28;20201;-89
2022/03/22 00:25:57;;;;;;;50.87;24.40;;;12.40;66.30;;;;;;5036623;28;20215;-90
2022/03/22 00:28:23;;;;;;;37.77;21.53;;;12.30;66.40;;;;;;5037181;28;20520;-89
2022/03/22 00:30:50;;;;;;;38.20;22.07;;;12.40;66.50;;;;;;5049987;28;20191;-89
2022/03/22 00:33:16;;;;;;;43.80;23.40;;;12.40;66.40;;;;;;5056538;28;20287;-90
2022/03/22 00:35:42;;;;;;;46.30;24.90;;;12.40;66.30;;;;;;5059599;28;20211;-88
2022/03/22 00:38:16;;;;;;;38.72;22.65;;;12.30;66.40;;;;;;5065640;28;20188;-89
2022/03/22 00:40:43;;;;;;;37.25;22.92;;;12.20;66.30;;;;;;5034278;28;20239;-91
2022/03/22 00:43:09;;;;;;;37.13;23.55;;;12.10;66.50;;;;;;5036098;28;20872;-89
2022/03/22 00:45:36;;;;;;;38.88;25.92;;;12.10;66.90;;;;;;5074478;28;20713;-90
2022/03/22 00:48:04;;;;;;;41.85;24.10;;;12.00;67.00;;;;;;5058278;28;20223;-90
2022/03/22 00:50:40;;;;;;;40.95;23.45;;;12.20;67.20;;;;;;5075685;28;20232;-90
2022/03/22 00:53:07;;;;;;;53.53;23.67;;;12.30;67.10;;;;;;5075305;28;20203;-89
2022/03/22 00:55:33;;;;;;;39.90;23.98;;;12.20;67.00;;;;;;5056458;28;20200;-90
2022/03/22 00:57:59;;;;;;;49.03;26.33;;;12.10;67.10;;;;;;5057212;28;20257;-89
2022/03/22 01:00:27;;;;;;;38.80;24.10;;;12.00;67.30;;;;;;5056499;28;20188;-89
2022/03/22 01:03:02;;;;;;;44.70;25.13;;;11.90;67.60;;;;;;5074435;28;20790;-89
2022/03/22 01:05:28;;;;;;;44.65;25.00;;;11.80;67.80;;;;;;5057589;28;20557;-89
2022/03/22 01:07:57;;;;;;;38.47;24.40;;;11.70;68.30;;;;;;5039173;28;20665;-89
2022/03/22 01:10:24;;;;;;;46.67;26.33;;;11.70;68.50;;;;;;5049160;28;20181;-90
2022/03/22 01:12:50;;;;;;;42.00;23.92;;;11.70;68.60;;;;;;5039382;28;20283;-89
2022/03/22 01:15:19;;;;;;;46.25;26.83;;;11.90;68.60;;;;;;5055098;28;20199;-90
2022/03/22 01:17:47;;;;;;;48.35;26.58;;;11.90;68.10;;;;;;5039844;28;20173;-89
2022/03/22 01:20:13;;;;;;;40.75;25.73;;;11.80;68.00;;;;;;5041078;28;20196;-89
2022/03/22 01:22:44;;;;;;;37.33;23.73;;;11.80;68.10;;;;;;5047141;28;20196;-90
2022/03/22 01:25:16;;;;;;;45.20;23.92;;;11.80;68.20;;;;;;5053026;28;20161;-90
2022/03/22 01:27:43;;;;;;;47.47;27.05;;;11.70;68.50;;;;;;5043643;28;20165;-89
2022/03/22 01:30:12;;;;;;;37.72;23.48;;;11.60;68.70;;;;;;5036143;28;20209;-89
2022/03/22 01:32:38;;;;;;;44.03;24.90;;;11.50;69.00;;;;;;5035971;28;20208;-90
2022/03/22 01:35:05;;;;;;;48.03;26.63;;;11.50;69.20;;;;;;5055024;28;20199;-90
2022/03/22 01:37:31;;;;;;;46.33;26.27;;;11.40;69.30;;;;;;5021558;28;20197;-90
2022/03/22 01:39:57;;;;;;;51.17;25.45;;;11.50;69.50;;;;;;5040000;28;20181;-89
2022/03/22 01:42:24;;;;;;;43.30;25.20;;;11.50;69.20;;;;;;5024309;28;20196;-91
2022/03/22 01:44:51;;;;;;;39.88;25.65;;;11.60;69.20;;;;;;5038662;28;20204;-89
2022/03/22 01:47:23;;;;;;;43.03;25.20;;;11.60;69.00;;;;;;5035337;28;20315;-90
2022/03/22 01:49:50;;;;;;;43.45;25.20;;;11.60;69.00;;;;;;5048039;28;20197;-90
2022/03/22 01:52:19;;;;;;;38.58;23.15;;;11.60;68.80;;;;;;5055082;28;20630;-90
2022/03/22 01:54:46;;;;;;;45.80;24.52;;;11.60;69.00;;;;;;5034814;28;20201;-90
2022/03/22 01:57:12;;;;;;;37.78;22.70;;;11.50;69.20;;;;;;5034916;28;20196;-90
2022/03/22 01:59:38;;;;;;;40.33;25.20;;;11.50;69.20;;;;;;5053144;28;20656;-90
2022/03/22 02:07:37;;;;;;;42.67;24.15;;;11.40;69.10;;;;;;5061927;28;20187;-90
2022/03/22 02:10:03;;;;;;;41.35;23.70;;;11.20;69.30;;;;;;5055620;28;20176;-90
2022/03/22 02:12:29;;;;;;;38.00;23.40;;;11.20;69.70;;;;;;5054708;28;20177;-90
2022/03/22 02:14:55;;;;;;;42.33;24.67;;;11.10;69.90;;;;;;5055297;28;20203;-93
2022/03/22 02:17:21;;;;;;;36.77;24.57;;;11.10;70.20;;;;;;5056629;28;20173;-90
2022/03/22 02:19:47;;;;;;;45.73;24.00;;;11.20;70.30;;;;;;5056497;28;20179;-92
2022/03/22 02:22:16;;;;;;;41.05;26.65;;;11.40;70.00;;;;;;5079021;28;20188;-90
2022/03/22 02:24:42;;;;;;;44.20;26.35;;;11.50;69.40;;;;;;5054976;28;20200;-90
2022/03/22 02:27:09;;;;;;;37.70;23.20;;;11.40;69.50;;;;;;5080689;28;20183;-90
2022/03/22 02:29:35;;;;;;;43.90;24.38;;;11.30;69.40;;;;;;5039589;28;20216;-90
2022/03/22 02:32:04;;;;;;;40.38;25.50;;;11.10;69.90;;;;;;5056132;28;20173;-90
2022/03/22 02:34:30;;;;;;;40.38;23.27;;;11.00;70.30;;;;;;5054200;28;20261;-90
2022/03/22 02:36:57;;;;;;;39.40;22.33;;;11.10;70.40;;;;;;5054482;28;20279;-90
2022/03/22 02:39:24;;;;;;;38.63;24.05;;;10.90;70.60;;;;;;5058482;28;20180;-90
2022/03/22 02:41:51;;;;;;;38.47;23.25;;;10.90;71.10;;;;;;5058365;28;20184;-90
2022/03/22 02:44:21;;;;;;;36.35;21.15;;;11.00;70.80;;;;;;5058272;28;20232;-90
2022/03/22 02:46:47;;;;;;;45.38;25.75;;;10.80;70.90;;;;;;5059280;28;20243;-90
2022/03/22 02:49:13;;;;;;;39.58;23.67;;;10.80;71.20;;;;;;5076376;28;20235;-90
2022/03/22 02:51:40;;;;;;;40.80;24.40;;;10.80;71.30;;;;;;5058204;28;20598;-90
2022/03/22 02:54:06;;;;;;;40.58;24.30;;;10.80;71.40;;;;;;5058687;28;20442;-90
2022/03/22 02:56:33;;;;;;;39.53;24.48;;;10.70;71.50;;;;;;5075988;28;20203;-90
2022/03/22 02:58:59;;;;;;;44.83;24.17;;;10.80;71.50;;;;;;5058530;28;20184;-90
2022/03/22 03:01:25;;;;;;;41.63;21.85;;;10.70;71.70;;;;;;5058548;28;20571;-92
2022/03/22 03:03:50;;;;;;;37.33;22.30;;;10.80;71.60;;;;;;5058021;28;20204;-90
2022/03/22 03:06:16;;;;;;;41.20;23.77;;;10.80;71.40;;;;;;5078211;28;20468;-90
2022/03/22 03:08:42;;;;;;;37.60;24.07;;;10.80;71.50;;;;;;5059641;28;20735;-90
2022/03/22 03:11:09;;;;;;;37.97;23.40;;;10.70;71.40;;;;;;5067755;28;20238;-89
2022/03/22 03:16:19;;;;;;;36.13;21.23;;;10.70;71.80;;;;;;5079813;28;20210;-90
2022/03/22 03:18:45;;;;;;;41.23;22.87;;;10.60;72.20;;;;;;5081532;28;20402;-90
2022/03/22 03:21:10;;;;;;;39.90;23.90;;;10.60;71.60;;;;;;5088295;28;20173;-90
2022/03/22 03:23:36;;;;;;;39.73;23.23;;;10.60;71.80;;;;;;5075557;28;20200;-90
2022/03/22 03:26:02;;;;;;;37.63;21.67;;;10.50;71.80;;;;;;5077538;28;20418;-90
2022/03/22 03:28:28;;;;;;;43.47;24.00;;;10.50;72.00;;;;;;5068415;28;20788;-89
2022/03/22 03:30:53;;;;;;;44.33;24.87;;;10.60;71.90;;;;;;5058065;28;20785;-90
2022/03/22 03:33:19;;;;;;;41.97;22.43;;;10.60;71.80;;;;;;5057873;28;20258;-89
2022/03/22 03:35:45;;;;;;;37.43;21.77;;;10.60;71.70;;;;;;5065162;28;20194;-89
2022/03/22 03:38:10;;;;;;;37.97;22.60;;;10.80;71.30;;;;;;5069052;28;20180;-89
2022/03/22 03:43:20;;;;;;;42.60;24.50;;;10.60;71.40;;;;;;5076803;28;20338;-89
2022/03/22 03:48:31;;;;;;;45.95;22.98;;;10.60;70.70;;;;;;5077985;28;20203;-89
2022/03/22 03:50:57;;;;;;;37.90;22.23;;;10.50;71.20;;;;;;5057069;28;20318;-89
2022/03/22 03:53:23;;;;;;;35.23;21.70;;;10.50;71.40;;;;;;5056811;28;20276;-90
2022/03/22 03:55:49;;;;;;;37.53;20.93;;;10.40;71.40;;;;;;5056895;28;20648;-88
2022/03/22 03:58:14;;;;;;;34.37;20.60;;;10.50;71.50;;;;;;5056900;28;20883;-90
2022/03/22 04:00:40;;;;;;;37.07;23.50;;;10.60;71.20;;;;;;5075265;28;20180;-90
2022/03/22 04:03:06;;;;;;;34.57;21.73;;;10.60;71.00;;;;;;5058077;28;20243;-90
2022/03/22 04:05:32;;;;;;;34.40;22.77;;;10.60;70.80;;;;;;5057195;28;20169;-90
2022/03/22 04:07:57;;;;;;;35.03;20.50;;;10.60;70.80;;;;;;5063526;28;20283;-90
2022/03/22 04:10:23;;;;;;;34.27;21.73;;;10.60;70.50;;;;;;5066368;28;20422;-90
2022/03/22 04:12:49;;;;;;;35.73;21.50;;;10.60;70.50;;;;;;5060432;28;20173;-89
2022/03/22 04:15:14;;;;;;;38.40;21.20;;;10.60;70.50;;;;;;5058256;28;20267;-90
2022/03/22 04:17:40;;;;;;;31.87;19.73;;;10.60;70.30;;;;;;5057226;28;20183;-90
2022/03/22 04:20:07;;;;;;;31.88;19.60;;;10.60;70.20;;;;;;5058029;28;20633;-90
2022/03/22 04:22:33;;;;;;;38.70;21.05;;;10.60;70.20;;;;;;5055443;28;20690;-90
2022/03/22 04:24:59;;;;;;;41.53;23.45;;;10.40;70.40;;;;;;5056490;28;20183;-90
2022/03/22 04:32:53;;;;;;;38.08;20.67;;;10.40;70.80;;;;;;5073690;28;20211;-89
2022/03/22 04:35:24;;;;;;;39.40;22.00;;;10.40;70.70;;;;;;5055734;28;20177;-89
2022/03/22 04:37:55;;;;;;;35.13;20.80;;;10.40;70.50;;;;;;5074975;28;20609;-89
2022/03/22 04:40:22;;;;;;;38.00;19.60;;;10.30;71.40;;;;;;5039846;28;20184;-89
2022/03/22 04:42:48;;;;;;;35.35;21.50;;;10.20;70.80;;;;;;5055803;28;20172;-90
2022/03/22 04:45:14;;;;;;;38.25;21.80;;;10.10;71.00;;;;;;5055701;28;20176;-90
2022/03/22 04:47:44;;;;;;;39.42;22.08;;;10.10;71.00;;;;;;5039427;28;20197;-90
2022/03/22 04:50:10;;;;;;;39.50;19.98;;;10.10;71.20;;;;;;5055641;28;20260;-89
2022/03/22 04:58:04;;;;;;;38.67;19.40;;;10.10;71.20;;;;;;5073982;28;20362;-90
2022/03/22 05:00:30;;;;;;;39.27;20.60;;;10.10;71.20;;;;;;5054876;28;20211;-90
2022/03/22 06:32:57;;;;;;;32.95;18.25;;;11.50;66.50;;;;;;5062370;28;20216;-94
2022/03/22 06:35:28;;;;;;;33.45;19.10;;;11.60;65.80;;;;;;5043236;28;20228;-95
2022/03/22 06:37:54;;;;;;;33.50;18.92;;;11.80;65.40;;;;;;5040785;28;20180;-92
2022/03/22 06:40:22;;;;;;;41.17;18.52;;;11.80;64.90;;;;;;5044654;28;20208;-95
2022/03/22 06:42:49;;;;;;;27.58;18.55;;;12.00;64.50;;;;;;5049769;28;20244;-95
2022/03/22 06:45:15;;;;;;;34.75;18.95;;;12.10;64.00;;;;;;5055815;28;20212;-94
2022/03/22 06:47:43;;;;;;;35.92;18.40;;;12.20;63.50;;;;;;5063756;28;20202;-95
2022/03/22 06:50:11;;;;;;;30.85;19.27;;;12.20;63.10;;;;;;5061514;28;20205;-95
2022/03/22 06:52:38;;;;;;;34.40;18.98;;;12.40;62.50;;;;;;5060295;28;20241;-95
2022/03/22 06:55:05;;;;;;;31.17;18.00;;;12.40;62.10;;;;;;5076075;28;20216;-95
2022/03/22 06:57:31;;;;;;;30.55;18.70;;;12.30;62.00;;;;;;5053747;28;20206;-94
2022/03/22 07:00:00;;;;;;;27.75;16.98;;;12.40;61.80;;;;;;5044929;28;20182;-95
2022/03/22 07:02:26;;;;;;;38.80;17.90;;;12.30;62.50;;;;;;5043907;28;20178;-94
2022/03/22 07:04:52;;;;;;;25.45;17.92;;;12.40;61.50;;;;;;5042409;28;20202;-94
2022/03/22 07:07:18;;;;;;;27.63;17.37;;;12.40;61.10;;;;;;5042697;28;20610;-94
2022/03/22 07:09:49;;;;;;;32.15;17.33;;;12.40;61.00;;;;;;5039037;28;20928;-91
2022/03/22 07:12:15;;;;;;;27.60;17.55;;;12.30;61.20;;;;;;5039466;28;20212;-91
2022/03/22 07:14:41;;;;;;;30.83;18.10;;;12.10;61.60;;;;;;5040693;28;20190;-92
2022/03/22 07:17:13;;;;;;;25.17;15.50;;;12.10;61.90;;;;;;5038685;28;20174;-91
2022/03/22 07:19:39;;;;;;;30.20;16.70;;;12.00;62.00;;;;;;5038913;28;20417;-92
2022/03/22 07:22:06;;;;;;;29.17;17.55;;;12.10;62.00;;;;;;5038618;28;20213;-91
2022/03/22 07:24:32;;;;;;;38.03;17.60;;;12.20;61.70;;;;;;5036175;28;20716;-93
2022/03/22 07:26:59;;;;;;;25.08;16.10;;;12.10;61.40;;;;;;5035876;28;20657;-93
2022/03/22 07:29:25;;;;;;;26.40;16.27;;;11.70;61.90;;;;;;5034799;28;20205;-93
2022/03/22 07:31:51;;;;;;;28.73;17.83;;;11.70;62.20;;;;;;5037461;28;20197;-93
2022/03/22 07:34:19;;;;;;;26.83;17.38;;;11.40;63.10;;;;;;5034856;28;20468;-93
2022/03/22 07:36:46;;;;;;;30.92;16.67;;;11.50;63.30;;;;;;5035346;28;20205;-93
2022/03/22 07:39:14;;;;;;;28.83;16.38;;;11.40;63.20;;;;;;5039694;28;20182;-94
2022/03/22 07:41:43;;;;;;;30.00;17.10;;;11.30;63.90;;;;;;5052889;28;20198;-94
2022/03/22 07:44:12;;;;;;;31.20;15.48;;;11.40;63.80;;;;;;5047130;28;20293;-93
2022/03/22 07:46:42;;;;;;;28.48;16.23;;;11.40;63.80;;;;;;5037343;28;20331;-95
2022/03/22 07:54:36;;;;;;;25.27;16.80;;;11.60;63.70;;;;;;5051661;28;20217;-95
2022/03/22 07:57:03;;;;;;;29.43;17.30;;;11.80;63.60;;;;;;5052481;28;20193;-94
2022/03/22 07:59:29;;;;;;;31.90;18.52;;;12.00;63.20;;;;;;5035853;28;20200;-94
2022/03/22 08:01:55;;;;;;;31.77;17.30;;;12.20;62.80;;;;;;5036370;28;20697;-94
2022/03/22 08:04:21;;;;;;;34.10;16.25;;;12.40;62.20;;;;;;5038396;28;20432;-94
2022/03/22 08:06:47;;;;;;;29.17;15.27;;;12.50;61.70;;;;;;5036561;28;20205;-94
2022/03/22 08:09:13;;;;;;;28.30;15.93;;;12.40;61.50;;;;;;5036931;28;20206;-94
2022/03/22 08:11:39;;;;;;;27.77;15.10;;;12.40;61.60;;;;;;5039067;28;20413;-94
2022/03/22 08:14:05;;;;;;;27.38;16.50;;;12.60;61.60;;;;;;5037644;28;20293;-93
2022/03/22 08:16:31;;;;;;;28.90;17.95;;;12.60;60.90;;;;;;5035388;28;20257;-94
2022/03/22 08:18:57;;;;;;;25.95;15.45;;;12.70;60.70;;;;;;5036224;28;20612;-94
2022/03/22 08:21:23;;;;;;;23.53;14.80;;;12.70;60.30;;;;;;5035778;28;20174;-94
2022/03/22 08:23:49;;;;;;;27.37;16.47;;;12.80;59.90;;;;;;5036293;28;20289;-94
2022/03/22 08:26:14;;;;;;;24.47;16.00;;;12.90;59.90;;;;;;5036247;28;20663;-95
2022/03/22 08:28:42;;;;;;;24.10;13.97;;;13.10;59.50;;;;;;5035817;28;21002;-94
2022/03/22 08:31:11;;;;;;;24.85;15.38;;;13.10;58.80;;;;;;5035772;28;20213;-94
2022/03/22 08:33:36;;;;;;;32.97;14.60;;;13.10;58.60;;;;;;5036176;28;20205;-94
2022/03/22 08:36:03;;;;;;;23.23;13.70;;;13.40;58.30;;;;;;5037700;28;20170;-94
2022/03/22 08:38:28;;;;;;;23.38;14.55;;;13.50;58.00;;;;;;5035708;28;20792;-94
2022/03/22 08:40:56;;;;;;;24.40;15.33;;;13.70;57.40;;;;;;5037061;28;20181;-94
2022/03/22 08:43:25;;;;;;;25.85;15.52;;;13.80;56.90;;;;;;5037110;28;20198;-94
2022/03/22 08:45:52;;;;;;;20.15;12.65;;;14.00;56.40;;;;;;5036438;28;20178;-94
2022/03/22 08:48:18;;;;;;;28.50;16.67;;;14.20;56.10;;;;;;5036795;28;20584;-94
2022/03/22 08:50:46;;;;;;;26.48;15.15;;;14.30;55.40;;;;;;5034884;28;20181;-92
2022/03/22 08:53:13;;;;;;;31.05;17.10;;;14.40;54.70;;;;;;5032656;28;20201;-92
2022/03/22 08:55:39;;;;;;;27.48;15.75;;;14.40;54.50;;;;;;5033049;28;20174;-92
2022/03/22 08:58:05;;;;;;;28.53;15.90;;;14.60;54.40;;;;;;5033041;28;20180;-92
2022/03/22 09:00:35;;;;;;;25.77;15.02;;;14.50;53.90;;;;;;5033285;28;20754;-92
2022/03/22 09:03:02;;;;;;;30.08;15.82;;;14.60;53.80;;;;;;5032352;28;20182;-92
2022/03/22 09:08:13;;;;;;;23.65;16.02;;;14.80;53.20;;;;;;5033998;28;20209;-92
2022/03/22 09:10:39;;;;;;;31.77;16.52;;;14.50;52.80;;;;;;5032093;28;20178;-92
2022/03/22 09:13:07;;;;;;;24.88;16.15;;;14.30;53.20;;;;;;5031710;28;20554;-91
2022/03/22 09:15:38;;;;;;;25.00;16.42;;;14.50;53.60;;;;;;5031790;28;20197;-91
2022/03/22 09:18:17;;;;;;;23.50;15.88;;;14.80;53.50;;;;;;5032264;28;20595;-91
2022/03/22 09:20:44;;;;;;;25.05;15.07;;;15.00;52.90;;;;;;5032235;28;20194;-92
2022/03/22 09:23:11;;;;;;;30.10;16.95;;;15.00;51.60;;;;;;5032680;28;20174;-92
2022/03/22 09:25:39;;;;;;;27.65;16.10;;;15.00;52.20;;;;;;5044435;28;20178;-92
2022/03/22 09:28:06;;;;;;;28.75;16.27;;;15.10;51.80;;;;;;5048523;28;20198;-92
2022/03/22 09:30:33;;;;;;;30.67;17.05;;;15.10;51.60;;;;;;5030235;28;20193;-91
2022/03/22 09:32:58;;;;;;;24.58;16.38;;;15.10;51.20;;;;;;5028350;28;20258;-92
2022/03/22 09:35:24;;;;;;;25.30;16.63;;;15.10;51.00;;;;;;5027836;28;20170;-91
2022/03/22 09:37:51;;;;;;;31.60;16.97;;;;;;;;;;5032111;28;20193;-92
2022/03/22 09:40:18;;;;;;;26.27;16.27;;;15.70;49.70;;;;;;5029561;28;20440;-92
2022/03/22 09:42:49;;;;;;;24.33;15.07;;;15.70;48.90;;;;;;5013748;28;20174;-92
2022/03/22 09:45:19;;;;;;;28.08;15.18;;;;;;;;;;5014125;28;20222;-91
2022/03/22 09:47:46;;;;;;;28.63;16.15;;;;;;;;;;5001495;28;20178;-92
2022/03/22 09:50:15;;;;;;;26.13;15.60;;;15.80;47.70;;;;;;5020814;28;20206;-92
2022/03/22 09:52:42;;;;;;;38.60;17.20;;;15.70;48.00;;;;;;5026236;28;20568;-91
2022/03/22 09:55:10;;;;;;;27.23;14.52;;;15.70;47.70;;;;;;5034029;28;20733;-91
2022/03/22 09:57:36;;;;;;;28.77;14.95;;;15.80;47.50;;;;;;5032603;28;20205;-91
2022/03/22 10:00:04;;;;;;;33.05;14.40;;;15.80;48.10;;;;;;5033391;28;20189;-92
2022/03/22 10:02:32;;;;;;;25.85;16.38;;;15.90;47.20;;;;;;5031886;28;20256;-92
2022/03/22 10:04:57;;;;;;;28.33;16.02;;;15.80;47.00;;;;;;5032230;28;20205;-92
2022/03/22 10:07:24;;;;;;;28.63;16.50;;;15.90;46.90;;;;;;5031705;28;20665;-92
2022/03/22 10:09:54;;;;;;;33.10;16.90;;;16.20;47.10;;;;;;5031705;28;20201;-92
2022/03/22 10:12:27;;;;;;;26.50;16.98;;;16.40;46.60;;;;;;5015124;28;20700;-92
2022/03/22 10:14:52;;;;;;;24.15;16.15;;;16.30;46.40;;;;;;5031864;28;20279;-92
2022/03/22 10:17:19;;;;;;;27.50;16.70;;;16.20;46.40;;;;;;5031885;28;20182;-91
2022/03/22 10:19:50;;;;;;;25.63;15.90;;;16.50;46.40;;;;;;5031347;28;20745;-92
2022/03/22 10:22:26;;;;;;;28.52;17.67;;;16.70;46.20;;;;;;5031849;28;20186;-91
2022/03/22 10:24:57;;;;;;;27.65;16.67;;;16.70;46.80;;;;;;5016939;28;20213;-92
2022/03/22 10:27:28;;;;;;;27.33;16.75;;;16.70;46.10;;;;;;5033181;28;20186;-92
2022/03/22 10:29:57;;;;;;;34.60;16.67;;;16.80;45.80;;;;;;5033064;28;20213;-91
2022/03/22 10:32:32;;;;;;;28.73;16.92;;;17.00;45.00;;;;;;5033376;28;20232;-92
2022/03/22 10:35:19;;;;;;;24.75;16.35;;;17.00;44.80;;;;;;5031390;28;20708;-92
2022/03/22 10:37:46;;;;;;;25.13;16.27;;;17.10;45.50;;;;;;5032352;28;20232;-92
2022/03/22 10:40:22;;;;;;;25.50;16.83;;;17.10;45.00;;;;;;5031322;28;20178;-92
2022/03/22 10:42:52;;;;;;;28.35;15.60;;;17.30;43.90;;;;;;5031083;28;20221;-92
2022/03/22 10:45:18;;;;;;;27.25;16.75;;;17.30;42.50;;;;;;5031728;28;20312;-92
2022/03/22 10:47:45;;;;;;;25.90;15.82;;;17.40;41.80;;;;;;5032361;28;20280;-92
2022/03/22 10:50:11;;;;;;;33.10;16.70;;;17.30;41.90;;;;;;5032959;28;20228;-92
2022/03/22 10:52:54;;;;;;;28.10;16.55;;;17.50;42.00;;;;;;5033906;28;20603;-91
2022/03/22 10:55:21;;;;;;;32.67;18.38;;;17.50;42.10;;;;;;5032693;28;20221;-92
2022/03/22 10:57:59;;;;;;;31.25;17.83;;;17.40;41.50;;;;;;5031307;28;20222;-91
2022/03/22 11:00:25;;;;;;;24.25;14.93;;;17.40;41.70;;;;;;5033771;28;20173;-92
2022/03/22 11:02:56;;;;;;;23.10;15.70;;;17.70;42.20;;;;;;5034499;28;20182;-92
2022/03/22 11:13:01;;;;;;;22.13;14.32;;;17.90;41.30;;;;;;5063533;28;20220;-89
2022/03/22 11:15:31;;;;;;;25.92;15.02;;;18.00;38.20;;;;;;5058898;28;20202;-90
2022/03/22 11:17:57;;;;;;;23.40;13.23;;;18.10;38.50;;;;;;5060759;28;20181;-89
2022/03/22 11:20:25;;;;;;;22.70;13.55;;;18.30;38.60;;;;;;5070335;28;20205;-89
2022/03/22 11:22:58;;;;;;;25.52;16.10;;;18.20;38.20;;;;;;5077122;28;20165;-91
2022/03/22 11:25:35;;;;;;;33.20;15.85;;;18.30;38.30;;;;;;5078151;28;20204;-91
2022/03/22 11:28:05;;;;;;;28.60;15.82;;;18.40;38.50;;;;;;5065318;28;20176;-89
2022/03/22 11:30:33;;;;;;;28.85;15.50;;;18.20;38.20;;;;;;5057346;28;20549;-90
2022/03/22 11:35:52;;;;;;;31.40;15.75;;;18.50;39.10;;;;;;5046379;28;20197;-90
2022/03/22 11:38:45;;;;;;;20.15;12.85;;;18.60;38.80;;;;;;5077008;28;20188;-90
2022/03/22 11:44:23;;;;;;;29.48;15.27;;;18.80;36.40;;;;;;5078981;28;20232;-90
2022/03/22 11:47:09;;;;;;;25.15;13.85;;;18.70;37.10;;;;;;5078805;28;20185;-91
2022/03/22 11:49:49;;;;;;;29.25;13.65;;;18.80;36.10;;;;;;5076993;28;20673;-90
2022/03/22 11:52:16;;;;;;;21.52;13.57;;;19.00;36.10;;;;;;5073198;28;20506;-89
2022/03/22 11:55:13;;;;;;;23.08;13.27;;;18.90;35.80;;;;;;5077291;28;20223;-89
2022/03/22 11:57:43;;;;;;;27.98;14.02;;;19.00;35.80;;;;;;5078695;28;20188;-89
2022/03/22 12:00:11;;;;;;;27.17;13.05;;;19.00;36.10;;;;;;5079413;28;20173;-93
2022/03/22 12:02:40;;;;;;;22.48;12.95;;;19.00;35.60;;;;;;5083086;28;20180;-93
2022/03/22 12:05:06;;;;;;;18.45;12.32;;;19.00;35.20;;;;;;5085793;28;20721;-92
2022/03/22 12:07:36;;;;;;;21.25;12.75;;;19.20;35.50;;;;;;5071148;28;20302;-92
2022/03/22 12:10:05;;;;;;;20.88;13.20;;;19.20;34.30;;;;;;5086051;28;20200;-92
2022/03/22 12:12:33;;;;;;;19.30;12.43;;;19.20;34.70;;;;;;5078407;28;20184;-93
2022/03/22 12:15:00;;;;;;;21.63;14.80;;;19.40;35.10;;;;;;5075781;28;20283;-91
2022/03/22 12:17:26;;;;;;;19.58;11.40;;;19.30;35.30;;;;;;5075862;28;20679;-91
2022/03/22 12:19:56;;;;;;;23.80;12.70;;;19.40;34.80;;;;;;5076450;28;20176;-92
2022/03/22 12:22:23;;;;;;;21.40;11.52;;;19.50;35.00;;;;;;5075760;28;20177;-91
2022/03/22 12:24:50;;;;;;;22.77;12.15;;;19.60;34.80;;;;;;5076121;28;20208;-92
2022/03/22 12:27:16;;;;;;;20.95;11.85;;;19.30;34.30;;;;;;5062264;28;20191;-92
2022/03/22 12:29:44;;;;;;;20.27;10.60;;;19.40;35.20;;;;;;5078661;28;20203;-93
2022/03/22 12:32:20;;;;;;;15.88;11.02;;;19.40;34.40;;;;;;5079621;28;20185;-93
2022/03/22 12:34:46;;;;;;;13.93;9.30;;;19.40;33.90;;;;;;5078068;28;20293;-92
2022/03/22 12:37:14;;;;;;;21.42;11.18;;;19.40;33.60;;;;;;5077486;28;20173;-92
2022/03/22 12:39:41;;;;;;;12.80;9.68;;;19.40;33.20;;;;;;5080389;28;20529;-93
2022/03/22 12:42:08;;;;;;;17.85;9.68;;;19.50;33.20;;;;;;5078943;28;20177;-92
2022/03/22 12:44:36;;;;;;;17.08;11.27;;;19.40;33.00;;;;;;5078289;28;20196;-93
2022/03/22 12:47:05;;;;;;;25.20;12.15;;;19.50;33.80;;;;;;5081097;28;20191;-92
2022/03/22 12:49:33;;;;;;;18.73;11.23;;;19.50;33.80;;;;;;5081165;28;20224;-92
2022/03/22 12:52:00;;;;;;;20.52;13.43;;;19.50;34.40;;;;;;5081775;28;20181;-92
2022/03/22 12:54:39;;;;;;;19.80;11.15;;;19.80;34.30;;;;;;5083403;28;20286;-92
2022/03/22 12:57:13;;;;;;;18.98;12.30;;;19.90;34.00;;;;;;5089490;28;20195;-92
2022/03/22 12:59:40;;;;;;;19.25;11.70;;;19.70;33.80;;;;;;5082321;28;20696;-89
2022/03/22 13:02:07;;;;;;;22.38;12.32;;;19.70;33.90;;;;;;5078830;28;20509;-89
2022/03/22 13:04:46;;;;;;;19.20;11.77;;;19.60;34.30;;;;;;5075673;28;20238;-89
2022/03/22 13:07:21;;;;;;;21.05;12.43;;;19.60;34.20;;;;;;5079104;28;20200;-90
2022/03/22 13:12:33;;;;;;;20.60;13.20;;;20.10;34.20;;;;;;5078317;28;20228;-89
2022/03/22 13:15:17;;;;;;;19.95;12.40;;;20.20;33.50;;;;;;5078818;28;20560;-89
2022/03/22 13:17:52;;;;;;;20.60;12.60;;;20.10;33.40;;;;;;5075543;28;20187;-89
2022/03/22 13:20:21;;;;;;;20.90;9.68;;;20.10;33.20;;;;;;5077177;28;20176;-89
2022/03/22 13:22:56;;;;;;;19.77;11.40;;;20.30;33.30;;;;;;5079518;28;20185;-89
2022/03/22 13:25:36;;;;;;;15.88;10.13;;;20.10;32.30;;;;;;5080582;28;20295;-89
2022/03/22 13:28:09;;;;;;;19.65;11.48;;;20.10;32.80;;;;;;5076822;28;20188;-89
2022/03/22 13:30:37;;;;;;;16.25;10.15;;;20.00;32.70;;;;;;5075336;28;20175;-88
2022/03/22 13:33:07;;;;;;;15.98;9.50;;;20.20;33.10;;;;;;5075694;28;20267;-89
2022/03/22 13:35:33;;;;;;;18.48;10.45;;;20.10;33.20;;;;;;5076876;28;20279;-89
2022/03/22 13:38:04;;;;;;;13.95;10.10;;;20.10;32.80;;;;;;5075610;28;20518;-89
2022/03/22 13:40:38;;;;;;;16.38;10.55;;;20.10;32.70;;;;;;5076437;28;20250;-89
2022/03/22 13:43:07;;;;;;;19.30;10.10;;;20.00;32.70;;;;;;5075789;28;20543;-89
2022/03/22 13:45:34;;;;;;;16.73;10.13;;;20.00;32.60;;;;;;5077943;28;20220;-89
2022/03/22 13:48:10;;;;;;;20.40;9.98;;;20.10;32.30;;;;;;5077126;28;20188;-89
2022/03/22 13:50:36;;;;;;;14.00;9.77;;;20.10;32.40;;;;;;5076230;28;20274;-89
2022/03/22 13:53:11;;;;;;;22.08;10.95;;;20.40;33.10;;;;;;5085614;28;20180;-90
2022/03/22 13:55:40;;;;;;;18.48;10.57;;;20.40;32.60;;;;;;5069469;28;20448;-92
2022/03/22 13:58:11;;;;;;;15.57;9.77;;;20.60;32.20;;;;;;5094565;28;20270;-90
2022/03/22 14:00:40;;;;;;;15.43;9.57;;;20.80;32.00;;;;;;5096533;28;20165;-90
2022/03/22 14:03:06;;;;;;;20.58;11.63;;;20.80;31.80;;;;;;5096758;28;20176;-90
2022/03/22 14:05:34;;;;;;;21.13;10.50;;;20.50;31.20;;;;;;5096367;28;20195;-90
2022/03/22 14:08:00;;;;;;;16.77;9.98;;;20.40;31.70;;;;;;5096480;28;20438;-90
2022/03/22 14:10:27;;;;;;;18.27;11.30;;;20.30;32.20;;;;;;5093412;28;20226;-92
2022/03/22 14:12:54;;;;;;;16.00;9.90;;;;;;;;;;5077399;28;20727;-91
2022/03/22 14:15:19;;;;;;;23.05;11.38;;;20.50;31.40;;;;;;5077597;28;20207;-92
2022/03/22 14:17:46;;;;;;;28.33;11.60;;;20.50;32.20;;;;;;5087085;28;20172;-91
2022/03/22 14:20:13;;;;;;;19.23;11.25;;;20.50;32.00;;;;;;5092030;28;20273;-91
2022/03/22 14:22:41;;;;;;;23.08;11.10;;;20.60;32.00;;;;;;5082134;28;20248;-91
2022/03/22 14:25:09;;;;;;;24.90;12.80;;;20.80;32.00;;;;;;5084050;28;20292;-91
2022/03/22 14:27:36;;;;;;;24.00;11.90;;;20.60;31.30;;;;;;5074936;28;20181;-91
2022/03/22 14:30:09;;;;;;;22.98;12.77;;;20.70;31.60;;;;;;5081901;28;20212;-91
2022/03/22 14:32:35;;;;;;;19.00;11.68;;;20.90;31.40;;;;;;5073809;28;20709;-92
2022/03/22 14:37:47;;;;;;;30.63;14.20;;;20.80;31.40;;;;;;5078874;28;20213;-91
2022/03/22 14:40:13;;;;;;;17.63;11.02;;;20.80;31.10;;;;;;5079902;28;20240;-92
2022/03/22 14:42:40;;;;;;;20.70;11.98;;;21.00;31.00;;;;;;5080255;28;20185;-92
2022/03/22 14:45:08;;;;;;;13.75;10.13;;;21.00;31.00;;;;;;5075918;28;20204;-92
2022/03/22 14:47:35;;;;;;;22.00;10.98;;;21.00;30.30;;;;;;5060671;28;20181;-91
2022/03/22 14:50:03;;;;;;;17.67;11.40;;;21.00;30.30;;;;;;5060666;28;20201;-91
2022/03/22 14:55:13;;;;;;;16.27;11.07;;;21.00;30.60;;;;;;5060310;28;20238;-92
2022/03/22 15:00:23;;;;;;;20.15;13.10;;;20.90;30.90;;;;;;5059765;28;20265;-92